This is the latest recevied weather packets stored in our database for station/object SP7WMI-13. If no packets are shown the sender has not sent any weather packets the latest 1 day(s).
| Time | Temp. | Humidity | Pressure | Rain* | Wind** | Luminosity | Snow |
|---|---|---|---|---|---|---|---|
| 1778089684 | 22.78° C | 43% | 1003.8 hPa | 0 mm | - | - | - |
| 1778088778 | 23.89° C | 41% | 1004 hPa | 0 mm | - | - | - |
| 1778087875 | 25° C | 40% | 1004 hPa | 0 mm | - | - | - |
| 1778086972 | 24.44° C | 41% | 1003.9 hPa | 0 mm | - | - | - |
| 1778085166 | 24.44° C | 41% | 1004 hPa | 0 mm | - | - | - |
| 1778073729 | 25.56° C | 41% | 1004.3 hPa | 0 mm | - | - | - |
| 1778073409 | 25° C | 42% | 1004.2 hPa | 0 mm | - | - | - |
| 1778072991 | 24.44° C | 44% | 1004.2 hPa | 0 mm | - | - | - |
| 1778072088 | 23.33° C | 47% | 1004.3 hPa | 0 mm | - | - | - |
| 1778071185 | 24.44° C | 46% | 1004.3 hPa | 0 mm | - | - | - |
| 1778070282 | 23.33° C | 48% | 1004.4 hPa | 0 mm | - | - | - |
| 1778069379 | 23.33° C | 50% | 1004.4 hPa | 0 mm | - | - | - |
| 1778068969 | 23.33° C | 51% | 1004.4 hPa | 0 mm | - | - | - |
| 1778068666 | 22.78° C | 54% | 1004.3 hPa | 0 mm | - | - | - |
| 1778061561 | 20.56° C | 65% | 1004.4 hPa | 0 mm | - | - | - |
| 1778060658 | 20° C | 68% | 1004.2 hPa | 0 mm | - | - | - |
| 1778059755 | 20° C | 69% | 1004.1 hPa | 0 mm | - | - | - |
| 1778057949 | 18.89° C | 75% | 1004.1 hPa | 0 mm | - | - | - |
| 1778057483 | 18.89° C | 74% | 1004.1 hPa | 0 mm | - | - | - |
| 1778007996 | 21.67° C | 65% | 1004.5 hPa | 0 mm | - | - | - |
* Rain since midnight (hover to see other rain measurements)
** Current wind speed in m/s (hover to see current wind gust speed)